sensor_id;sensor_type;location;lat;lon;timestamp;P1;durP1;ratioP1;P2;durP2;ratioP2
37907;SDS011;23740;51.550;6.846;2024-01-07T00:02:25;6.28;;;3.20;;
37907;SDS011;23740;51.550;6.846;2024-01-07T00:04:58;5.25;;;2.15;;
37907;SDS011;23740;51.550;6.846;2024-01-07T00:07:28;5.35;;;3.20;;
37907;SDS011;23740;51.550;6.846;2024-01-07T00:09:56;5.18;;;2.70;;
37907;SDS011;23740;51.550;6.846;2024-01-07T00:12:24;4.28;;;3.03;;
37907;SDS011;23740;51.550;6.846;2024-01-07T00:14:52;2.97;;;2.35;;
37907;SDS011;23740;51.550;6.846;2024-01-07T00:17:20;4.88;;;2.72;;
37907;SDS011;23740;51.550;6.846;2024-01-07T00:19:48;3.17;;;2.15;;
37907;SDS011;23740;51.550;6.846;2024-01-07T00:22:17;4.05;;;2.20;;
37907;SDS011;23740;51.550;6.846;2024-01-07T00:24:45;3.75;;;2.13;;
37907;SDS011;23740;51.550;6.846;2024-01-07T00:27:13;4.18;;;2.33;;
37907;SDS011;23740;51.550;6.846;2024-01-07T00:29:41;7.20;;;3.88;;
37907;SDS011;23740;51.550;6.846;2024-01-07T00:32:09;5.75;;;3.50;;
37907;SDS011;23740;51.550;6.846;2024-01-07T00:34:37;5.97;;;4.22;;
37907;SDS011;23740;51.550;6.846;2024-01-07T00:37:05;3.88;;;2.42;;
37907;SDS011;23740;51.550;6.846;2024-01-07T00:39:34;5.07;;;3.25;;
37907;SDS011;23740;51.550;6.846;2024-01-07T00:42:02;5.38;;;3.13;;
37907;SDS011;23740;51.550;6.846;2024-01-07T00:44:30;4.53;;;1.77;;
37907;SDS011;23740;51.550;6.846;2024-01-07T00:46:58;2.45;;;1.52;;
37907;SDS011;23740;51.550;6.846;2024-01-07T00:49:27;5.70;;;3.10;;
37907;SDS011;23740;51.550;6.846;2024-01-07T00:51:55;8.50;;;5.13;;
37907;SDS011;23740;51.550;6.846;2024-01-07T00:54:23;2.88;;;1.90;;
37907;SDS011;23740;51.550;6.846;2024-01-07T00:56:52;5.88;;;3.03;;
37907;SDS011;23740;51.550;6.846;2024-01-07T00:59:20;2.88;;;1.70;;
37907;SDS011;23740;51.550;6.846;2024-01-07T01:01:48;3.70;;;2.17;;
37907;SDS011;23740;51.550;6.846;2024-01-07T01:04:16;7.35;;;4.53;;
37907;SDS011;23740;51.550;6.846;2024-01-07T01:06:44;3.20;;;2.22;;
37907;SDS011;23740;51.550;6.846;2024-01-07T01:09:12;2.83;;;2.22;;
37907;SDS011;23740;51.550;6.846;2024-01-07T01:11:40;0.70;;;0.70;;
37907;SDS011;23740;51.550;6.846;2024-01-07T01:14:09;3.97;;;2.67;;
37907;SDS011;23740;51.550;6.846;2024-01-07T01:16:37;6.20;;;3.17;;
37907;SDS011;23740;51.550;6.846;2024-01-07T01:19:05;4.90;;;2.83;;
37907;SDS011;23740;51.550;6.846;2024-01-07T01:21:33;5.50;;;3.15;;
37907;SDS011;23740;51.550;6.846;2024-01-07T01:24:01;6.30;;;3.50;;
37907;SDS011;23740;51.550;6.846;2024-01-07T01:26:29;4.78;;;2.67;;
37907;SDS011;23740;51.550;6.846;2024-01-07T01:28:57;3.72;;;2.35;;
37907;SDS011;23740;51.550;6.846;2024-01-07T01:31:26;7.80;;;3.45;;
37907;SDS011;23740;51.550;6.846;2024-01-07T01:33:54;3.83;;;2.85;;
37907;SDS011;23740;51.550;6.846;2024-01-07T01:36:23;7.95;;;4.13;;
37907;SDS011;23740;51.550;6.846;2024-01-07T01:38:51;8.80;;;4.47;;
37907;SDS011;23740;51.550;6.846;2024-01-07T01:41:18;7.90;;;3.33;;
37907;SDS011;23740;51.550;6.846;2024-01-07T01:43:46;8.55;;;4.05;;
37907;SDS011;23740;51.550;6.846;2024-01-07T01:46:14;7.15;;;2.97;;
37907;SDS011;23740;51.550;6.846;2024-01-07T01:48:44;9.23;;;4.82;;
37907;SDS011;23740;51.550;6.846;2024-01-07T01:51:12;11.48;;;5.88;;
37907;SDS011;23740;51.550;6.846;2024-01-07T01:53:40;12.25;;;5.07;;
37907;SDS011;23740;51.550;6.846;2024-01-07T01:56:08;5.82;;;3.03;;
37907;SDS011;23740;51.550;6.846;2024-01-07T01:58:36;8.60;;;4.93;;
37907;SDS011;23740;51.550;6.846;2024-01-07T02:01:04;5.05;;;2.88;;
37907;SDS011;23740;51.550;6.846;2024-01-07T02:03:33;5.85;;;3.55;;
37907;SDS011;23740;51.550;6.846;2024-01-07T02:06:03;7.30;;;4.35;;
37907;SDS011;23740;51.550;6.846;2024-01-07T02:08:31;5.10;;;2.97;;
37907;SDS011;23740;51.550;6.846;2024-01-07T02:11:13;14.73;;;7.30;;
37907;SDS011;23740;51.550;6.846;2024-01-07T02:13:42;4.95;;;2.25;;
37907;SDS011;23740;51.550;6.846;2024-01-07T02:16:10;6.10;;;3.55;;
37907;SDS011;23740;51.550;6.846;2024-01-07T02:18:38;7.40;;;4.00;;
37907;SDS011;23740;51.550;6.846;2024-01-07T02:21:10;6.60;;;3.72;;
37907;SDS011;23740;51.550;6.846;2024-01-07T02:23:40;6.47;;;3.90;;
37907;SDS011;23740;51.550;6.846;2024-01-07T02:26:09;8.18;;;3.40;;
37907;SDS011;23740;51.550;6.846;2024-01-07T02:28:37;3.08;;;2.03;;
37907;SDS011;23740;51.550;6.846;2024-01-07T02:31:05;7.20;;;3.67;;
37907;SDS011;23740;51.550;6.846;2024-01-07T02:33:33;4.63;;;2.70;;
37907;SDS011;23740;51.550;6.846;2024-01-07T02:36:01;4.40;;;2.95;;
37907;SDS011;23740;51.550;6.846;2024-01-07T02:38:29;4.32;;;2.72;;
37907;SDS011;23740;51.550;6.846;2024-01-07T02:40:56;7.82;;;4.60;;
37907;SDS011;23740;51.550;6.846;2024-01-07T02:43:27;9.88;;;5.80;;
37907;SDS011;23740;51.550;6.846;2024-01-07T02:45:55;6.22;;;4.07;;
37907;SDS011;23740;51.550;6.846;2024-01-07T02:48:23;9.98;;;4.78;;
37907;SDS011;23740;51.550;6.846;2024-01-07T02:50:51;6.18;;;3.65;;
37907;SDS011;23740;51.550;6.846;2024-01-07T02:53:19;6.57;;;4.10;;
37907;SDS011;23740;51.550;6.846;2024-01-07T02:55:47;9.00;;;4.65;;
37907;SDS011;23740;51.550;6.846;2024-01-07T02:58:15;7.72;;;3.80;;
37907;SDS011;23740;51.550;6.846;2024-01-07T03:00:45;6.15;;;2.88;;
37907;SDS011;23740;51.550;6.846;2024-01-07T03:03:13;6.95;;;4.38;;
37907;SDS011;23740;51.550;6.846;2024-01-07T03:05:40;9.27;;;4.53;;
37907;SDS011;23740;51.550;6.846;2024-01-07T03:08:08;5.10;;;3.55;;
37907;SDS011;23740;51.550;6.846;2024-01-07T03:10:36;7.38;;;3.60;;
37907;SDS011;23740;51.550;6.846;2024-01-07T03:13:04;4.15;;;3.53;;
37907;SDS011;23740;51.550;6.846;2024-01-07T03:15:32;8.13;;;4.80;;
37907;SDS011;23740;51.550;6.846;2024-01-07T03:18:02;6.78;;;3.85;;
37907;SDS011;23740;51.550;6.846;2024-01-07T03:20:30;4.68;;;3.10;;
37907;SDS011;23740;51.550;6.846;2024-01-07T03:22:59;8.23;;;4.90;;
37907;SDS011;23740;51.550;6.846;2024-01-07T03:25:26;1.95;;;1.75;;
37907;SDS011;23740;51.550;6.846;2024-01-07T03:27:54;2.97;;;1.65;;
37907;SDS011;23740;51.550;6.846;2024-01-07T03:30:22;7.85;;;4.90;;
37907;SDS011;23740;51.550;6.846;2024-01-07T03:32:50;9.20;;;5.18;;
37907;SDS011;23740;51.550;6.846;2024-01-07T03:35:20;4.80;;;3.10;;
37907;SDS011;23740;51.550;6.846;2024-01-07T03:37:49;7.68;;;3.55;;
37907;SDS011;23740;51.550;6.846;2024-01-07T03:40:17;2.47;;;2.22;;
37907;SDS011;23740;51.550;6.846;2024-01-07T03:42:45;7.88;;;3.08;;
37907;SDS011;23740;51.550;6.846;2024-01-07T03:45:13;3.00;;;2.08;;
37907;SDS011;23740;51.550;6.846;2024-01-07T03:47:41;4.88;;;2.90;;
37907;SDS011;23740;51.550;6.846;2024-01-07T03:50:09;4.50;;;3.22;;
37907;SDS011;23740;51.550;6.846;2024-01-07T03:52:38;7.68;;;3.15;;
37907;SDS011;23740;51.550;6.846;2024-01-07T03:55:06;4.32;;;2.38;;
37907;SDS011;23740;51.550;6.846;2024-01-07T03:57:35;4.88;;;3.72;;
37907;SDS011;23740;51.550;6.846;2024-01-07T04:00:03;3.67;;;2.85;;
37907;SDS011;23740;51.550;6.846;2024-01-07T04:02:32;4.15;;;2.50;;
37907;SDS011;23740;51.550;6.846;2024-01-07T04:04:59;4.35;;;3.25;;
37907;SDS011;23740;51.550;6.846;2024-01-07T04:07:29;8.05;;;4.50;;
37907;SDS011;23740;51.550;6.846;2024-01-07T04:09:58;4.10;;;2.55;;
37907;SDS011;23740;51.550;6.846;2024-01-07T04:12:29;4.80;;;2.60;;
37907;SDS011;23740;51.550;6.846;2024-01-07T04:14:57;4.25;;;2.95;;
37907;SDS011;23740;51.550;6.846;2024-01-07T04:17:25;2.20;;;1.58;;
37907;SDS011;23740;51.550;6.846;2024-01-07T04:19:53;3.92;;;2.35;;
37907;SDS011;23740;51.550;6.846;2024-01-07T04:22:21;4.28;;;3.03;;
37907;SDS011;23740;51.550;6.846;2024-01-07T04:24:49;6.63;;;2.63;;
37907;SDS011;23740;51.550;6.846;2024-01-07T04:27:18;5.10;;;3.45;;
37907;SDS011;23740;51.550;6.846;2024-01-07T04:29:46;4.97;;;3.13;;
37907;SDS011;23740;51.550;6.846;2024-01-07T04:32:14;4.63;;;3.20;;
37907;SDS011;23740;51.550;6.846;2024-01-07T04:34:42;2.85;;;2.40;;
37907;SDS011;23740;51.550;6.846;2024-01-07T04:37:12;5.28;;;3.70;;
37907;SDS011;23740;51.550;6.846;2024-01-07T04:39:41;3.65;;;2.63;;
37907;SDS011;23740;51.550;6.846;2024-01-07T04:42:08;6.07;;;3.20;;
37907;SDS011;23740;51.550;6.846;2024-01-07T04:44:40;7.10;;;4.15;;
37907;SDS011;23740;51.550;6.846;2024-01-07T04:50:00;10.65;;;5.32;;
37907;SDS011;23740;51.550;6.846;2024-01-07T04:52:29;6.22;;;3.67;;
37907;SDS011;23740;51.550;6.846;2024-01-07T04:54:56;5.20;;;3.08;;
37907;SDS011;23740;51.550;6.846;2024-01-07T04:57:24;4.63;;;3.30;;
37907;SDS011;23740;51.550;6.846;2024-01-07T04:59:54;4.20;;;2.92;;
37907;SDS011;23740;51.550;6.846;2024-01-07T05:02:22;6.22;;;4.22;;
37907;SDS011;23740;51.550;6.846;2024-01-07T05:04:49;6.63;;;2.95;;
37907;SDS011;23740;51.550;6.846;2024-01-07T05:07:17;4.57;;;3.47;;
37907;SDS011;23740;51.550;6.846;2024-01-07T05:09:45;4.30;;;2.88;;
37907;SDS011;23740;51.550;6.846;2024-01-07T05:12:13;4.95;;;3.10;;
37907;SDS011;23740;51.550;6.846;2024-01-07T05:14:41;5.07;;;3.90;;
37907;SDS011;23740;51.550;6.846;2024-01-07T05:17:14;4.97;;;2.20;;
37907;SDS011;23740;51.550;6.846;2024-01-07T05:19:41;6.70;;;4.25;;
37907;SDS011;23740;51.550;6.846;2024-01-07T05:22:10;7.22;;;3.95;;
37907;SDS011;23740;51.550;6.846;2024-01-07T05:24:38;3.05;;;1.73;;
37907;SDS011;23740;51.550;6.846;2024-01-07T05:27:06;3.45;;;2.35;;
37907;SDS011;23740;51.550;6.846;2024-01-07T05:29:34;9.35;;;5.85;;
37907;SDS011;23740;51.550;6.846;2024-01-07T05:32:02;3.65;;;2.55;;
37907;SDS011;23740;51.550;6.846;2024-01-07T05:34:31;3.55;;;2.65;;
37907;SDS011;23740;51.550;6.846;2024-01-07T05:36:59;4.10;;;2.72;;
37907;SDS011;23740;51.550;6.846;2024-01-07T05:39:27;5.20;;;2.30;;
37907;SDS011;23740;51.550;6.846;2024-01-07T05:41:55;6.22;;;2.95;;
37907;SDS011;23740;51.550;6.846;2024-01-07T05:44:23;6.22;;;4.00;;
37907;SDS011;23740;51.550;6.846;2024-01-07T05:46:55;4.30;;;2.78;;
37907;SDS011;23740;51.550;6.846;2024-01-07T05:49:23;4.00;;;2.50;;
37907;SDS011;23740;51.550;6.846;2024-01-07T05:51:53;5.38;;;3.20;;
37907;SDS011;23740;51.550;6.846;2024-01-07T05:54:23;5.65;;;3.22;;
37907;SDS011;23740;51.550;6.846;2024-01-07T05:56:51;3.80;;;2.13;;
37907;SDS011;23740;51.550;6.846;2024-01-07T05:59:21;2.80;;;2.30;;
37907;SDS011;23740;51.550;6.846;2024-01-07T06:01:49;6.65;;;3.63;;
37907;SDS011;23740;51.550;6.846;2024-01-07T06:04:16;5.90;;;3.40;;
37907;SDS011;23740;51.550;6.846;2024-01-07T06:06:44;4.93;;;3.50;;
37907;SDS011;23740;51.550;6.846;2024-01-07T06:09:18;5.72;;;2.80;;
37907;SDS011;23740;51.550;6.846;2024-01-07T06:11:46;5.18;;;3.45;;
37907;SDS011;23740;51.550;6.846;2024-01-07T06:14:14;4.68;;;3.63;;
37907;SDS011;23740;51.550;6.846;2024-01-07T06:16:43;5.50;;;2.85;;
37907;SDS011;23740;51.550;6.846;2024-01-07T06:19:10;7.35;;;4.43;;
37907;SDS011;23740;51.550;6.846;2024-01-07T06:21:38;5.18;;;2.78;;
37907;SDS011;23740;51.550;6.846;2024-01-07T06:24:07;6.25;;;2.90;;
37907;SDS011;23740;51.550;6.846;2024-01-07T06:26:36;7.85;;;4.70;;
37907;SDS011;23740;51.550;6.846;2024-01-07T06:29:04;5.47;;;2.95;;
37907;SDS011;23740;51.550;6.846;2024-01-07T06:31:32;7.65;;;4.40;;
37907;SDS011;23740;51.550;6.846;2024-01-07T06:34:00;7.15;;;3.95;;
37907;SDS011;23740;51.550;6.846;2024-01-07T06:36:28;5.75;;;4.05;;
37907;SDS011;23740;51.550;6.846;2024-01-07T06:38:56;12.25;;;7.95;;
37907;SDS011;23740;51.550;6.846;2024-01-07T06:41:24;9.60;;;4.15;;
37907;SDS011;23740;51.550;6.846;2024-01-07T06:43:53;5.10;;;3.33;;
37907;SDS011;23740;51.550;6.846;2024-01-07T06:46:23;2.53;;;1.83;;
37907;SDS011;23740;51.550;6.846;2024-01-07T06:48:51;3.72;;;2.42;;
37907;SDS011;23740;51.550;6.846;2024-01-07T06:51:19;7.13;;;2.40;;
37907;SDS011;23740;51.550;6.846;2024-01-07T06:53:47;8.95;;;4.53;;
37907;SDS011;23740;51.550;6.846;2024-01-07T06:56:16;6.32;;;2.92;;
37907;SDS011;23740;51.550;6.846;2024-01-07T06:58:44;4.18;;;3.20;;
37907;SDS011;23740;51.550;6.846;2024-01-07T07:01:14;7.00;;;4.88;;
37907;SDS011;23740;51.550;6.846;2024-01-07T07:03:47;6.15;;;4.43;;
37907;SDS011;23740;51.550;6.846;2024-01-07T07:06:15;9.45;;;5.88;;
37907;SDS011;23740;51.550;6.846;2024-01-07T07:08:43;3.63;;;2.67;;
37907;SDS011;23740;51.550;6.846;2024-01-07T07:11:11;7.15;;;3.55;;
37907;SDS011;23740;51.550;6.846;2024-01-07T07:13:39;4.07;;;2.25;;
37907;SDS011;23740;51.550;6.846;2024-01-07T07:16:07;3.60;;;2.88;;
37907;SDS011;23740;51.550;6.846;2024-01-07T07:18:37;6.68;;;4.05;;
37907;SDS011;23740;51.550;6.846;2024-01-07T07:21:05;6.72;;;4.38;;
37907;SDS011;23740;51.550;6.846;2024-01-07T07:23:32;5.78;;;2.83;;
37907;SDS011;23740;51.550;6.846;2024-01-07T07:26:00;6.07;;;3.25;;
37907;SDS011;23740;51.550;6.846;2024-01-07T07:28:28;5.38;;;2.92;;
37907;SDS011;23740;51.550;6.846;2024-01-07T07:30:56;5.07;;;3.00;;
37907;SDS011;23740;51.550;6.846;2024-01-07T07:33:24;3.35;;;2.13;;
37907;SDS011;23740;51.550;6.846;2024-01-07T07:35:54;5.93;;;4.07;;
37907;SDS011;23740;51.550;6.846;2024-01-07T07:38:22;2.85;;;2.08;;
37907;SDS011;23740;51.550;6.846;2024-01-07T07:40:49;4.78;;;3.05;;
37907;SDS011;23740;51.550;6.846;2024-01-07T07:43:19;6.07;;;3.38;;
37907;SDS011;23740;51.550;6.846;2024-01-07T07:45:51;6.45;;;4.35;;
37907;SDS011;23740;51.550;6.846;2024-01-07T07:48:19;2.83;;;2.10;;
37907;SDS011;23740;51.550;6.846;2024-01-07T07:50:48;7.47;;;5.22;;
37907;SDS011;23740;51.550;6.846;2024-01-07T07:53:18;4.70;;;2.72;;
37907;SDS011;23740;51.550;6.846;2024-01-07T07:55:46;4.53;;;3.70;;
37907;SDS011;23740;51.550;6.846;2024-01-07T07:58:14;6.63;;;4.90;;
37907;SDS011;23740;51.550;6.846;2024-01-07T08:00:42;4.93;;;2.53;;
37907;SDS011;23740;51.550;6.846;2024-01-07T08:03:11;4.68;;;3.45;;
37907;SDS011;23740;51.550;6.846;2024-01-07T08:05:39;5.93;;;3.55;;
37907;SDS011;23740;51.550;6.846;2024-01-07T08:08:08;3.08;;;1.98;;
37907;SDS011;23740;51.550;6.846;2024-01-07T08:10:37;4.00;;;2.45;;
37907;SDS011;23740;51.550;6.846;2024-01-07T08:13:05;8.25;;;3.92;;
37907;SDS011;23740;51.550;6.846;2024-01-07T08:15:35;6.50;;;3.60;;
37907;SDS011;23740;51.550;6.846;2024-01-07T08:18:04;5.88;;;4.25;;
37907;SDS011;23740;51.550;6.846;2024-01-07T08:20:32;3.42;;;2.60;;
37907;SDS011;23740;51.550;6.846;2024-01-07T08:23:00;2.55;;;2.10;;
37907;SDS011;23740;51.550;6.846;2024-01-07T08:25:28;6.03;;;3.78;;
37907;SDS011;23740;51.550;6.846;2024-01-07T08:27:57;4.55;;;3.58;;
37907;SDS011;23740;51.550;6.846;2024-01-07T08:30:26;4.03;;;2.40;;
37907;SDS011;23740;51.550;6.846;2024-01-07T08:32:54;9.15;;;4.80;;
37907;SDS011;23740;51.550;6.846;2024-01-07T08:35:22;7.15;;;4.65;;
37907;SDS011;23740;51.550;6.846;2024-01-07T08:37:53;4.45;;;2.45;;
37907;SDS011;23740;51.550;6.846;2024-01-07T08:40:21;6.03;;;4.22;;
37907;SDS011;23740;51.550;6.846;2024-01-07T08:42:49;10.02;;;6.28;;
37907;SDS011;23740;51.550;6.846;2024-01-07T08:45:18;7.60;;;4.15;;
37907;SDS011;23740;51.550;6.846;2024-01-07T08:47:46;7.65;;;4.80;;
37907;SDS011;23740;51.550;6.846;2024-01-07T08:50:15;7.35;;;3.67;;
37907;SDS011;23740;51.550;6.846;2024-01-07T08:52:43;4.18;;;3.28;;
37907;SDS011;23740;51.550;6.846;2024-01-07T08:55:13;9.00;;;5.22;;
37907;SDS011;23740;51.550;6.846;2024-01-07T08:57:42;8.15;;;4.45;;
37907;SDS011;23740;51.550;6.846;2024-01-07T09:00:13;9.18;;;5.28;;
37907;SDS011;23740;51.550;6.846;2024-01-07T09:02:43;11.10;;;6.70;;
37907;SDS011;23740;51.550;6.846;2024-01-07T09:05:11;3.85;;;2.88;;
37907;SDS011;23740;51.550;6.846;2024-01-07T09:07:40;8.38;;;4.72;;
37907;SDS011;23740;51.550;6.846;2024-01-07T09:10:11;9.25;;;6.40;;
37907;SDS011;23740;51.550;6.846;2024-01-07T09:12:40;11.45;;;8.18;;
37907;SDS011;23740;51.550;6.846;2024-01-07T09:15:08;15.02;;;11.00;;
37907;SDS011;23740;51.550;6.846;2024-01-07T09:17:36;11.32;;;7.20;;
37907;SDS011;23740;51.550;6.846;2024-01-07T09:20:10;7.80;;;5.28;;
37907;SDS011;23740;51.550;6.846;2024-01-07T09:22:41;11.20;;;7.10;;
37907;SDS011;23740;51.550;6.846;2024-01-07T09:25:10;9.38;;;5.43;;
37907;SDS011;23740;51.550;6.846;2024-01-07T09:27:38;11.73;;;8.27;;
37907;SDS011;23740;51.550;6.846;2024-01-07T09:30:08;5.47;;;4.47;;
37907;SDS011;23740;51.550;6.846;2024-01-07T09:32:40;4.82;;;3.20;;
37907;SDS011;23740;51.550;6.846;2024-01-07T09:35:10;4.00;;;2.92;;
37907;SDS011;23740;51.550;6.846;2024-01-07T09:37:38;4.75;;;3.65;;
37907;SDS011;23740;51.550;6.846;2024-01-07T09:40:06;4.50;;;3.13;;
37907;SDS011;23740;51.550;6.846;2024-01-07T09:42:34;5.45;;;3.95;;
37907;SDS011;23740;51.550;6.846;2024-01-07T09:45:03;4.13;;;3.28;;
37907;SDS011;23740;51.550;6.846;2024-01-07T09:47:32;3.63;;;2.45;;
37907;SDS011;23740;51.550;6.846;2024-01-07T09:50:00;5.93;;;2.15;;
37907;SDS011;23740;51.550;6.846;2024-01-07T09:52:29;5.18;;;3.38;;
37907;SDS011;23740;51.550;6.846;2024-01-07T09:54:59;2.80;;;2.13;;
37907;SDS011;23740;51.550;6.846;2024-01-07T09:57:30;4.00;;;3.05;;
37907;SDS011;23740;51.550;6.846;2024-01-07T09:59:58;5.40;;;2.92;;
37907;SDS011;23740;51.550;6.846;2024-01-07T10:02:27;4.50;;;2.90;;
37907;SDS011;23740;51.550;6.846;2024-01-07T10:04:56;4.10;;;2.42;;
37907;SDS011;23740;51.550;6.846;2024-01-07T10:07:24;2.42;;;1.55;;
37907;SDS011;23740;51.550;6.846;2024-01-07T10:09:54;4.80;;;3.05;;
37907;SDS011;23740;51.550;6.846;2024-01-07T10:12:22;2.00;;;1.45;;
37907;SDS011;23740;51.550;6.846;2024-01-07T10:14:50;3.65;;;1.67;;
37907;SDS011;23740;51.550;6.846;2024-01-07T10:17:18;6.60;;;4.20;;
37907;SDS011;23740;51.550;6.846;2024-01-07T10:19:56;3.65;;;2.03;;
37907;SDS011;23740;51.550;6.846;2024-01-07T10:22:25;3.20;;;2.38;;
37907;SDS011;23740;51.550;6.846;2024-01-07T10:24:55;4.75;;;2.55;;
37907;SDS011;23740;51.550;6.846;2024-01-07T10:27:24;7.03;;;3.90;;
37907;SDS011;23740;51.550;6.846;2024-01-07T10:29:51;2.88;;;2.10;;
37907;SDS011;23740;51.550;6.846;2024-01-07T10:32:21;6.03;;;4.70;;
37907;SDS011;23740;51.550;6.846;2024-01-07T10:34:50;3.97;;;2.05;;
37907;SDS011;23740;51.550;6.846;2024-01-07T10:37:25;2.10;;;1.73;;
37907;SDS011;23740;51.550;6.846;2024-01-07T10:39:53;5.15;;;2.72;;
37907;SDS011;23740;51.550;6.846;2024-01-07T10:42:32;3.28;;;2.28;;
37907;SDS011;23740;51.550;6.846;2024-01-07T10:45:01;3.88;;;2.63;;
37907;SDS011;23740;51.550;6.846;2024-01-07T10:47:29;2.90;;;1.83;;
37907;SDS011;23740;51.550;6.846;2024-01-07T10:49:58;3.22;;;2.88;;
37907;SDS011;23740;51.550;6.846;2024-01-07T10:52:27;4.22;;;1.45;;
37907;SDS011;23740;51.550;6.846;2024-01-07T10:54:56;3.42;;;2.47;;
37907;SDS011;23740;51.550;6.846;2024-01-07T10:57:27;3.95;;;2.22;;
37907;SDS011;23740;51.550;6.846;2024-01-07T11:00:02;2.08;;;1.83;;
37907;SDS011;23740;51.550;6.846;2024-01-07T11:02:34;3.63;;;1.95;;
37907;SDS011;23740;51.550;6.846;2024-01-07T11:05:08;2.42;;;1.98;;
37907;SDS011;23740;51.550;6.846;2024-01-07T11:07:44;1.92;;;1.38;;
37907;SDS011;23740;51.550;6.846;2024-01-07T11:10:14;2.90;;;1.98;;
37907;SDS011;23740;51.550;6.846;2024-01-07T11:12:54;1.75;;;1.65;;
37907;SDS011;23740;51.550;6.846;2024-01-07T11:18:26;2.03;;;1.80;;
37907;SDS011;23740;51.550;6.846;2024-01-07T11:20:58;2.10;;;1.58;;
37907;SDS011;23740;51.550;6.846;2024-01-07T11:23:26;2.35;;;1.50;;
37907;SDS011;23740;51.550;6.846;2024-01-07T11:25:56;1.75;;;1.63;;
37907;SDS011;23740;51.550;6.846;2024-01-07T11:28:43;2.53;;;1.52;;
37907;SDS011;23740;51.550;6.846;2024-01-07T11:31:15;2.55;;;2.22;;
37907;SDS011;23740;51.550;6.846;2024-01-07T11:33:45;2.40;;;1.73;;
37907;SDS011;23740;51.550;6.846;2024-01-07T11:36:14;2.15;;;1.63;;
37907;SDS011;23740;51.550;6.846;2024-01-07T11:38:42;2.88;;;2.03;;
37907;SDS011;23740;51.550;6.846;2024-01-07T11:41:11;2.78;;;1.48;;
37907;SDS011;23740;51.550;6.846;2024-01-07T11:46:31;2.05;;;1.30;;
37907;SDS011;23740;51.550;6.846;2024-01-07T11:48:59;2.28;;;1.58;;
37907;SDS011;23740;51.550;6.846;2024-01-07T11:51:29;1.98;;;1.35;;
37907;SDS011;23740;51.550;6.846;2024-01-07T11:53:59;1.98;;;1.55;;
37907;SDS011;23740;51.550;6.846;2024-01-07T11:56:28;2.58;;;1.65;;
37907;SDS011;23740;51.550;6.846;2024-01-07T11:58:57;3.15;;;1.48;;
37907;SDS011;23740;51.550;6.846;2024-01-07T12:01:26;1.90;;;1.65;;
37907;SDS011;23740;51.550;6.846;2024-01-07T12:03:54;2.50;;;2.08;;
37907;SDS011;23740;51.550;6.846;2024-01-07T12:06:22;3.92;;;2.13;;
37907;SDS011;23740;51.550;6.846;2024-01-07T12:08:51;2.42;;;2.15;;
37907;SDS011;23740;51.550;6.846;2024-01-07T12:11:19;2.88;;;2.13;;
37907;SDS011;23740;51.550;6.846;2024-01-07T12:13:52;3.20;;;2.33;;
37907;SDS011;23740;51.550;6.846;2024-01-07T12:16:22;2.28;;;1.75;;
37907;SDS011;23740;51.550;6.846;2024-01-07T12:18:50;2.95;;;1.98;;
37907;SDS011;23740;51.550;6.846;2024-01-07T12:21:19;2.95;;;2.17;;
37907;SDS011;23740;51.550;6.846;2024-01-07T12:23:48;2.13;;;1.55;;
37907;SDS011;23740;51.550;6.846;2024-01-07T12:26:18;4.60;;;1.80;;
37907;SDS011;23740;51.550;6.846;2024-01-07T12:28:51;2.33;;;1.50;;
37907;SDS011;23740;51.550;6.846;2024-01-07T12:31:20;3.28;;;2.35;;
37907;SDS011;23740;51.550;6.846;2024-01-07T12:33:50;1.80;;;1.70;;
37907;SDS011;23740;51.550;6.846;2024-01-07T12:36:20;1.50;;;1.33;;
37907;SDS011;23740;51.550;6.846;2024-01-07T12:38:48;1.48;;;1.10;;
37907;SDS011;23740;51.550;6.846;2024-01-07T12:41:17;1.38;;;0.90;;
37907;SDS011;23740;51.550;6.846;2024-01-07T12:43:46;4.15;;;2.65;;
37907;SDS011;23740;51.550;6.846;2024-01-07T12:46:14;4.45;;;2.75;;
37907;SDS011;23740;51.550;6.846;2024-01-07T12:48:42;3.30;;;2.17;;
37907;SDS011;23740;51.550;6.846;2024-01-07T12:51:12;2.58;;;1.90;;
37907;SDS011;23740;51.550;6.846;2024-01-07T12:53:41;2.55;;;1.73;;
37907;SDS011;23740;51.550;6.846;2024-01-07T12:56:11;1.55;;;1.45;;
37907;SDS011;23740;51.550;6.846;2024-01-07T12:58:39;2.03;;;1.30;;
37907;SDS011;23740;51.550;6.846;2024-01-07T13:01:07;1.70;;;0.85;;
37907;SDS011;23740;51.550;6.846;2024-01-07T13:03:36;3.40;;;1.52;;
37907;SDS011;23740;51.550;6.846;2024-01-07T13:06:04;3.83;;;1.90;;
37907;SDS011;23740;51.550;6.846;2024-01-07T13:08:35;1.25;;;0.85;;
37907;SDS011;23740;51.550;6.846;2024-01-07T13:11:02;1.67;;;1.40;;
37907;SDS011;23740;51.550;6.846;2024-01-07T13:13:32;2.15;;;1.40;;
37907;SDS011;23740;51.550;6.846;2024-01-07T13:16:00;1.92;;;1.02;;
37907;SDS011;23740;51.550;6.846;2024-01-07T13:18:28;1.40;;;0.77;;
37907;SDS011;23740;51.550;6.846;2024-01-07T13:20:56;0.75;;;0.57;;
37907;SDS011;23740;51.550;6.846;2024-01-07T13:23:24;1.30;;;1.20;;
37907;SDS011;23740;51.550;6.846;2024-01-07T13:25:54;1.60;;;1.40;;
37907;SDS011;23740;51.550;6.846;2024-01-07T13:28:23;1.15;;;0.68;;
37907;SDS011;23740;51.550;6.846;2024-01-07T13:30:51;2.17;;;0.90;;
37907;SDS011;23740;51.550;6.846;2024-01-07T13:33:23;0.80;;;0.75;;
37907;SDS011;23740;51.550;6.846;2024-01-07T13:35:52;2.38;;;1.80;;
37907;SDS011;23740;51.550;6.846;2024-01-07T13:38:20;1.48;;;1.10;;
37907;SDS011;23740;51.550;6.846;2024-01-07T13:40:48;1.05;;;0.98;;
37907;SDS011;23740;51.550;6.846;2024-01-07T13:43:17;2.17;;;1.98;;
37907;SDS011;23740;51.550;6.846;2024-01-07T13:45:45;2.03;;;1.05;;
37907;SDS011;23740;51.550;6.846;2024-01-07T13:48:13;1.05;;;0.93;;
37907;SDS011;23740;51.550;6.846;2024-01-07T13:50:41;2.47;;;1.33;;
37907;SDS011;23740;51.550;6.846;2024-01-07T13:53:09;2.58;;;2.00;;
37907;SDS011;23740;51.550;6.846;2024-01-07T13:55:37;1.98;;;1.20;;
37907;SDS011;23740;51.550;6.846;2024-01-07T13:58:05;1.25;;;0.90;;
37907;SDS011;23740;51.550;6.846;2024-01-07T14:00:34;1.75;;;1.50;;
37907;SDS011;23740;51.550;6.846;2024-01-07T14:03:03;2.03;;;1.42;;
37907;SDS011;23740;51.550;6.846;2024-01-07T14:05:31;0.88;;;0.88;;
37907;SDS011;23740;51.550;6.846;2024-01-07T14:07:59;3.38;;;1.65;;
37907;SDS011;23740;51.550;6.846;2024-01-07T14:10:27;1.10;;;1.00;;
37907;SDS011;23740;51.550;6.846;2024-01-07T14:12:55;2.30;;;1.10;;
37907;SDS011;23740;51.550;6.846;2024-01-07T14:15:24;1.67;;;0.70;;
37907;SDS011;23740;51.550;6.846;2024-01-07T14:17:54;1.63;;;1.48;;
37907;SDS011;23740;51.550;6.846;2024-01-07T14:20:22;1.63;;;1.15;;
37907;SDS011;23740;51.550;6.846;2024-01-07T14:22:50;1.88;;;1.50;;
37907;SDS011;23740;51.550;6.846;2024-01-07T14:25:18;2.67;;;1.23;;
37907;SDS011;23740;51.550;6.846;2024-01-07T14:27:46;1.35;;;1.10;;
37907;SDS011;23740;51.550;6.846;2024-01-07T14:30:15;0.90;;;0.88;;
37907;SDS011;23740;51.550;6.846;2024-01-07T14:32:43;1.00;;;0.90;;
37907;SDS011;23740;51.550;6.846;2024-01-07T14:35:13;1.42;;;0.85;;
37907;SDS011;23740;51.550;6.846;2024-01-07T14:37:41;1.25;;;1.15;;
37907;SDS011;23740;51.550;6.846;2024-01-07T14:40:09;0.75;;;0.75;;
37907;SDS011;23740;51.550;6.846;2024-01-07T14:42:37;2.80;;;1.67;;
37907;SDS011;23740;51.550;6.846;2024-01-07T14:45:06;1.10;;;1.00;;
37907;SDS011;23740;51.550;6.846;2024-01-07T14:47:35;1.20;;;1.10;;
37907;SDS011;23740;51.550;6.846;2024-01-07T14:50:06;1.15;;;1.05;;
37907;SDS011;23740;51.550;6.846;2024-01-07T14:52:36;1.65;;;1.23;;
37907;SDS011;23740;51.550;6.846;2024-01-07T14:55:04;1.10;;;1.00;;
37907;SDS011;23740;51.550;6.846;2024-01-07T14:57:33;2.20;;;1.80;;
37907;SDS011;23740;51.550;6.846;2024-01-07T15:00:01;1.50;;;1.27;;
37907;SDS011;23740;51.550;6.846;2024-01-07T15:02:31;1.40;;;1.00;;
37907;SDS011;23740;51.550;6.846;2024-01-07T15:05:00;1.40;;;1.02;;
37907;SDS011;23740;51.550;6.846;2024-01-07T15:07:30;4.53;;;3.17;;